AC115 / C-GIUB 7700 Squawk Report (17th of September, 2019)

Aircraft A321 Reg No. C-GIUB Age 17 years old
Model A321 Jet engines 2 First flight 02-11-01
Registered 20-06-02 Rollout 10-01 Delivered 19-12-01
Construction No. 1623 Line No. N/A Series 211
ADSHEX C05BD2 Airline name Air Canada Owner N/A
Airfield based Montreal-Dorval~QC~C First tracked 2017-07-14 03:15:00

Flight history for C-GIUB

Route Flight No Date Playback
Vancouver International (YVR) - Toronto Pearson International (YYZ) AC118 2019-10-21 21:48:00
Ottawa Macdonald-Cartier (YOW) - Vancouver International (YVR) AC345 2019-10-21 02:53:00
Vancouver International (YVR) - Ottawa Macdonald-Cartier (YOW) AC338 2019-10-20 16:52:00
Winnipeg International (YWG) - Vancouver International (YVR) AC295 2019-10-20 16:37:00
Toronto Pearson International (YYZ) - Winnipeg International (YWG) AC271 2019-10-20 14:31:00
La Guardia (LGA) - Toronto Pearson International (YYZ) AC723 2019-10-20 03:30:00
Toronto Pearson International (YYZ) - La Guardia (LGA) AC718 2019-10-19 23:13:00
Los Angeles Intl (LAX) - Toronto Pearson International (YYZ) AC794 2019-10-19 21:02:00
Toronto Pearson International (YYZ) - Los Angeles Intl (LAX) AC795 2019-10-18 23:47:00
San Francisco Intl (SFO) - Toronto Pearson International (YYZ) AC758 2019-10-18 21:02:00
Toronto Pearson International (YYZ) - San Francisco Intl (SFO) AC753 2019-10-18 15:09:00
Vancouver International (YVR) - Toronto Pearson International (YYZ) AC110 2019-10-18 00:02:00
Edmonton International (YEG) - Vancouver International (YVR) AC237 2019-10-17 17:24:00
Vancouver International (YVR) - Edmonton International (YEG) AC248 2019-10-17 03:01:00
Calgary International (YYC) - Vancouver International (YVR) AC223 2019-10-17 01:29:00
Toronto Pearson International (YYZ) - Calgary International (YYC) AC145 2019-10-17 01:05:00
Calgary International (YYC) - Toronto Pearson International (YYZ) AC136 2019-10-16 19:01:00
Vancouver International (YVR) - Calgary International (YYC) AC228 2019-10-16 04:24:00
Toronto Pearson International (YYZ) - Vancouver International (YVR) AC121 2019-10-16 04:10:00
Los Angeles Intl (LAX) - Toronto Pearson International (YYZ) AC794 2019-10-15 21:36:00
Time Lat Lon Altitude Heading Speed Vertical Rate
2019-09-17 21:00:58 GMT 43.699703 -79.652184 325 136 154 -768
2019-09-17 21:00:42 GMT 43.707619 -79.662712 600 136 166 -832
2019-09-17 21:00:30 GMT 43.713017 -79.670105 750 136 166 -832
2019-09-17 21:00:21 GMT 43.718185 -79.677170 900 136 166 -832
2019-09-17 21:00:09 GMT 43.730705 -79.692734 1,050 136 169 -896
2019-09-17 20:59:56 GMT 43.730705 -79.692734 1,175 136 169 -896
2019-09-17 20:59:48 GMT 43.735409 -79.698685 1,325 135 173 -960
2019-09-17 20:59:30 GMT 43.745789 -79.712021 1,475 135 173 -960
2019-09-17 20:59:23 GMT 43.750305 -79.718102 1,625 135 173 -960
2019-09-17 20:59:16 GMT 43.753609 -79.722679 1,800 135 175 -960
2019-09-17 20:59:02 GMT 43.761478 -79.733665 1,950 135 175 -960
2019-09-17 20:58:49 GMT 43.769020 -79.743874 2,125 135 175 -960
2019-09-17 20:58:39 GMT 43.775120 -79.752571 2,325 135 176 -960
We lost coverage of the aircraft here for a total of 29 minutes
2019-09-17 20:29:24 GMT 44.284912 -80.294518 9,725 233 229 0
2019-09-17 20:29:24 GMT 44.284912 -80.294518 9,725 251 251 -64
2019-09-17 20:29:17 GMT 44.298782 -80.291901 9,725 251 251 -64
2019-09-17 20:29:10 GMT 44.298782 -80.291901 9,700 251 251 -64
2019-09-17 20:28:56 GMT 44.313400 -80.269997 9,725 291 271 0
2019-09-17 20:28:43 GMT 44.326809 -80.250908 9,725 291 271 0
2019-09-17 20:28:35 GMT 44.324806 -80.205086 9,725 309 266 0
2019-09-17 20:28:20 GMT 44.324806 -80.205086 9,725 309 266 0
2019-09-17 20:28:10 GMT 44.318707 -80.188202 9,725 314 270 0
2019-09-17 20:28:05 GMT 44.316288 -80.181374 9,725 16 220 -64
2019-09-17 20:27:51 GMT 44.304695 -80.164894 9,725 16 220 -64
2019-09-17 20:27:42 GMT 44.296692 -80.152977 9,725 16 220 -64
2019-09-17 20:27:32 GMT 44.286587 -80.136017 9,725 16 220 -64
2019-09-17 20:27:17 GMT 44.275322 -80.115921 9,725 16 220 -64
2019-09-17 20:27:08 GMT 44.267406 -80.107414 9,725 16 220 -64
2019-09-17 20:26:56 GMT 44.252419 -80.086380 9,725 16 220 -64
2019-09-17 20:26:43 GMT 44.238918 -80.068695 9,725 16 220 -64
2019-09-17 20:26:35 GMT 44.228489 -80.058578 9,725 16 220 -64
2019-09-17 20:26:21 GMT 44.208611 -80.049805 9,725 53 246 -128
2019-09-17 20:26:02 GMT 44.163597 -80.050308 9,725 81 249 -128
2019-09-17 20:25:47 GMT 44.147720 -80.064629 9,725 134 301 0
2019-09-17 20:25:40 GMT 44.132778 -80.077774 9,725 134 301 0
2019-09-17 20:25:23 GMT 44.139622 -80.106094 9,725 134 301 0
2019-09-17 20:25:18 GMT 44.141205 -80.116623 9,725 134 301 0
2019-09-17 20:25:05 GMT 44.148003 -80.142128 9,725 134 301 0
2019-09-17 20:24:56 GMT 44.152191 -80.157097 9,725 134 301 0
2019-09-17 20:24:42 GMT 44.163780 -80.179596 9,725 134 301 0
2019-09-17 20:24:30 GMT 44.175884 -80.196007 9,725 134 300 0
2019-09-17 20:24:19 GMT 44.185287 -80.209282 9,725 133 302 0
2019-09-17 20:24:12 GMT 44.195393 -80.223305 9,725 133 302 0
2019-09-17 20:23:58 GMT 44.206795 -80.240120 9,725 134 303 0
2019-09-17 20:23:46 GMT 44.220203 -80.260086 9,725 134 303 0
2019-09-17 20:23:39 GMT 44.225883 -80.268791 9,725 134 302 0
We lost coverage of the aircraft here for a total of 38 minutes
2019-09-17 19:45:35 GMT 43.813801 -79.928810 9,650 275 269 1856
2019-09-17 19:45:28 GMT 43.809986 -79.919785 9,325 254 279 1664
2019-09-17 19:45:15 GMT 43.806587 -79.897873 8,950 254 279 1664
2019-09-17 19:45:09 GMT 43.803284 -79.867271 8,475 254 279 1664
2019-09-17 19:44:59 GMT 43.803284 -79.867271 8,225 254 279 1664
2019-09-17 19:44:45 GMT 43.807610 -79.842682 7,950 254 279 1664
2019-09-17 19:44:33 GMT 43.811520 -79.823326 7,625 256 272 1088
2019-09-17 19:44:19 GMT 43.816689 -79.798409 7,350 256 272 1088
2019-09-17 19:44:11 GMT 43.819809 -79.784805 7,050 256 272 1088
2019-09-17 19:44:00 GMT 43.828186 -79.747009 6,775 256 272 1088
2019-09-17 19:43:49 GMT 43.828186 -79.747009 6,725 256 272 1088
2019-09-17 19:43:37 GMT 43.832703 -79.726280 6,725 256 272 1088
2019-09-17 19:43:27 GMT 43.836800 -79.707382 6,725 256 272 1088
2019-09-17 19:43:16 GMT 43.840801 -79.689720 6,725 256 272 1088
2019-09-17 19:43:04 GMT 43.845596 -79.667290 6,725 256 272 1088
2019-09-17 19:42:53 GMT 43.849880 -79.649574 6,700 256 272 1088
2019-09-17 19:42:45 GMT 43.852905 -79.636299 6,625 256 272 1088
2019-09-17 19:42:30 GMT 43.859703 -79.608833 6,450 256 272 1088
2019-09-17 19:42:25 GMT 43.861893 -79.598625 6,275 257 269 1088
2019-09-17 19:42:10 GMT 43.855980 -79.498703 6,075 11 226 2240
2019-09-17 19:41:37 GMT 43.855980 -79.498703 5,525 30 249 1856
2019-09-17 19:41:31 GMT 43.847599 -79.493477 5,350 30 249 1856
2019-09-17 19:41:18 GMT 43.816082 -79.503677 4,975 37 223 640
2019-09-17 19:41:04 GMT 43.816082 -79.503677 4,550 37 223 640
2019-09-17 19:40:55 GMT 43.810684 -79.510017 4,250 37 223 640
2019-09-17 19:40:42 GMT 43.798019 -79.525383 3,900 37 223 640

Making use of Plane Finder data

You are free to use the raw flight data, aircraft information and images provided in this report for your own purposes provided the data is correctly attributed to Plane Finder. We ask that you please credit Plane Finder and link to planefinder.net in close proximity to the content.

Optionally one of the following logos (no smaller then 150x24px) can be used and must link to planefinder.net

Embedding the Plane Finder map

You are welcome to embed the Plane Finder playback map on your website to offer visitors a more interactive experience. We suggest using the following HTML code:

<iframe src="//planefinder.net/data/report/AC115-C-GIUB-7700-squawk-2019-09-17/map" width="800" height="600" seamless="seamless"></iframe>

Where our data comes from

Plane Finder has a global network of data feeds and antenna radars that receive data broadcast directly from aircraft. The primary technologies used are ADS-B and MLAT. We also show feeds from the FAA and a FLARM glider feed.

Click here to find out more about the Plane Finder network.

How we collect our data